createdAt,value
2022-09-15T00:01:47.935Z,99503.78
2022-09-15T00:03:50.192Z,99506.69
2022-09-15T00:05:53.608Z,99507.91
2022-09-15T00:07:55.546Z,99504.59
2022-09-15T00:09:57.504Z,99502.56
2022-09-15T00:11:59.221Z,99493.91
2022-09-15T00:14:03.474Z,99493.28
2022-09-15T00:16:05.717Z,99494.13
2022-09-15T00:18:07.477Z,99494.53
2022-09-15T00:20:10.040Z,99488.16
2022-09-15T00:22:11.795Z,99487.09
2022-09-15T00:24:13.489Z,99482.16
2022-09-15T00:26:19.246Z,99475.78
2022-09-15T00:28:22.772Z,99489.13
2022-09-15T00:30:24.499Z,99482.34
2022-09-15T00:32:26.458Z,99491.78
2022-09-15T00:34:28.428Z,99487.69
2022-09-15T00:36:30.907Z,99486.25
2022-09-15T00:38:33.827Z,99487.47
2022-09-15T00:41:01.743Z,99485.25
2022-09-15T00:43:03.431Z,99483.41
2022-09-15T00:45:06.613Z,99458.13
2022-09-15T00:47:23.606Z,99478.25
2022-09-15T00:49:29.801Z,99465.09
2022-09-15T00:51:41.291Z,99477.00
2022-09-15T00:53:44.206Z,99472.09
2022-09-15T00:55:49.774Z,99474.13
2022-09-15T00:57:56.147Z,99472.50
2022-09-15T01:02:26.093Z,99463.06
2022-09-15T01:04:27.888Z,99478.47
2022-09-15T01:06:36.413Z,99468.81
2022-09-15T01:09:01.155Z,99464.72
2022-09-15T01:11:03.235Z,99468.41
2022-09-15T01:13:11.208Z,99464.53
2022-09-15T01:15:13.061Z,99468.03
2022-09-15T01:19:51.471Z,99457.75
2022-09-15T01:22:23.424Z,99402.06
2022-09-15T01:24:43.391Z,99462.25
2022-09-15T01:26:50.758Z,99456.72
2022-09-15T01:29:01.520Z,99455.91
2022-09-15T01:31:29.509Z,99448.72
2022-09-15T01:33:38.509Z,99457.75
2022-09-15T01:35:55.413Z,99452.41
2022-09-15T01:38:30.720Z,99449.53
2022-09-15T01:40:38.267Z,99450.34
2022-09-15T01:42:42.679Z,99447.91
2022-09-15T01:44:57.828Z,99434.13
2022-09-15T01:47:07.352Z,99436.78
2022-09-15T01:49:13.619Z,99439.84
2022-09-15T01:51:16.466Z,99444.41
2022-09-15T01:53:21.014Z,99445.03
2022-09-15T01:55:47.142Z,99447.06
2022-09-15T01:57:49.203Z,99447.69
2022-09-15T01:59:53.774Z,99454.06
2022-09-15T02:02:04.836Z,99450.56
2022-09-15T02:05:02.245Z,99453.81
2022-09-15T02:07:21.173Z,99450.13
2022-09-15T02:09:30.551Z,99450.13
2022-09-15T02:11:36.794Z,99440.28
2022-09-15T02:14:05.470Z,99437.41
2022-09-15T02:16:18.598Z,99446.06
2022-09-15T02:18:41.282Z,99442.13
2022-09-15T02:20:53.070Z,99444.59
2022-09-15T02:23:00.185Z,99445.19
2022-09-15T02:25:10.923Z,99444.78
2022-09-15T02:27:19.735Z,99441.91
2022-09-15T02:29:24.494Z,99446.81
2022-09-15T02:31:29.470Z,99458.50
2022-09-15T02:33:37.840Z,99450.91
2022-09-15T02:35:41.201Z,99449.84
2022-09-15T02:37:43.469Z,99449.75
2022-09-15T02:39:49.970Z,99457.00
2022-09-15T02:41:52.299Z,99460.06
2022-09-15T02:43:54.033Z,99457.81
2022-09-15T02:45:56.058Z,99457.63
2022-09-15T02:47:58.728Z,99452.91
2022-09-15T02:50:00.406Z,99454.34
2022-09-15T02:52:02.697Z,99447.16
2022-09-15T02:54:04.471Z,99436.88
2022-09-15T02:56:06.626Z,99439.53
2022-09-15T02:58:08.580Z,99442.63
2022-09-15T03:00:11.020Z,99441.38
2022-09-15T03:04:13.076Z,99443.19
2022-09-15T03:06:14.803Z,99443.41
2022-09-15T03:08:16.539Z,99439.09
2022-09-15T03:10:18.822Z,99446.03
2022-09-15T03:12:20.507Z,99440.72
2022-09-15T03:14:22.294Z,99447.25
2022-09-15T03:16:25.676Z,99442.09
2022-09-15T03:18:27.381Z,99440.59
2022-09-15T03:20:29.263Z,99435.25
2022-09-15T03:22:31.531Z,99434.81
2022-09-15T03:24:33.224Z,99436.59
2022-09-15T03:26:34.906Z,99432.28
2022-09-15T03:28:38.683Z,99434.06
2022-09-15T03:30:40.367Z,99430.41
2022-09-15T03:32:42.292Z,99438.84
2022-09-15T03:34:44.155Z,99442.06
2022-09-15T03:36:46.097Z,99447.78
2022-09-15T03:38:47.836Z,99447.94
2022-09-15T03:41:07.562Z,99447.53
2022-09-15T03:43:10.209Z,99445.69
2022-09-15T03:45:11.905Z,99444.06
2022-09-15T03:47:14.006Z,99438.72
2022-09-15T03:49:15.757Z,99432.56
2022-09-15T03:51:17.492Z,99430.31
2022-09-15T03:53:20.014Z,99427.66
2022-09-15T03:55:21.686Z,99433.56
2022-09-15T03:57:23.439Z,99442.56
2022-09-15T03:59:25.523Z,99440.47
2022-09-15T04:01:28.530Z,99439.84
2022-09-15T04:03:30.331Z,99433.47
2022-09-15T04:05:32.529Z,99434.72
2022-09-15T04:07:34.232Z,99429.59
2022-09-15T04:09:35.946Z,99432.84
2022-09-15T04:11:38.851Z,99431.00
2022-09-15T04:13:41.904Z,99437.34
2022-09-15T04:15:43.632Z,99434.44
2022-09-15T04:17:45.755Z,99429.50
2022-09-15T04:19:47.506Z,99430.72
2022-09-15T04:21:49.191Z,99429.63
2022-09-15T04:23:51.876Z,99424.50
2022-09-15T04:25:57.427Z,99427.97
2022-09-15T04:27:59.099Z,99433.44
2022-09-15T04:30:00.948Z,99434.72
2022-09-15T04:32:03.047Z,99429.59
2022-09-15T04:34:04.743Z,99435.59
2022-09-15T04:36:10.097Z,99437.88
2022-09-15T04:38:11.845Z,99442.97
2022-09-15T04:40:13.606Z,99435.63
2022-09-15T04:42:15.707Z,99434.19
2022-09-15T04:44:17.581Z,99447.16
2022-09-15T04:46:19.752Z,99437.78
2022-09-15T04:48:22.816Z,99438.16
2022-09-15T04:50:24.558Z,99440.63
2022-09-15T04:52:26.293Z,99446.41
2022-09-15T04:54:28.874Z,99443.97
2022-09-15T04:56:30.612Z,99441.72
2022-09-15T04:58:39.367Z,99440.28
2022-09-15T05:00:43.227Z,99444.19
2022-09-15T05:02:45.024Z,99441.72
2022-09-15T05:04:48.687Z,99441.72
2022-09-15T05:06:50.496Z,99439.06
2022-09-15T05:08:55.117Z,99429.19
2022-09-15T05:11:01.710Z,99446.19
2022-09-15T05:13:03.612Z,99445.63
2022-09-15T05:15:06.437Z,99448.97
2022-09-15T05:17:08.194Z,99444.00
2022-09-15T05:19:10.639Z,99430.22
2022-09-15T05:21:15.795Z,99438.53
2022-09-15T05:23:17.766Z,99440.63
2022-09-15T05:25:19.507Z,99442.41
2022-09-15T05:27:21.213Z,99438.34
2022-09-15T05:29:22.976Z,99439.09
2022-09-15T05:31:28.078Z,99437.72
2022-09-15T05:33:29.818Z,99435.06
2022-09-15T05:35:31.596Z,99440.38
2022-09-15T05:37:34.336Z,99437.13
2022-09-15T05:39:36.391Z,99439.41
2022-09-15T05:41:38.249Z,99438.41
2022-09-15T05:43:40.300Z,99438.69
2022-09-15T05:45:42.229Z,99443.03
2022-09-15T05:47:43.937Z,99442.63
2022-09-15T05:49:45.809Z,99442.13
2022-09-15T05:51:47.542Z,99426.94
2022-09-15T05:53:49.464Z,99421.19
2022-09-15T05:55:58.877Z,99428.59
2022-09-15T05:58:00.614Z,99432.94
2022-09-15T06:00:02.860Z,99431.09
2022-09-15T06:02:05.007Z,99439.06
2022-09-15T06:04:06.761Z,99438.06
2022-09-15T06:06:08.661Z,99414.66
2022-09-15T06:08:10.693Z,99432.75
2022-09-15T06:10:12.436Z,99438.72
2022-09-15T06:12:14.123Z,99433.16
2022-09-15T06:14:16.078Z,99432.34
2022-09-15T06:16:20.646Z,99438.50
2022-09-15T06:18:22.520Z,99435.84
2022-09-15T06:20:25.110Z,99441.78
2022-09-15T06:22:28.190Z,99441.78
2022-09-15T06:24:29.973Z,99442.97
2022-09-15T06:26:31.861Z,99451.59
2022-09-15T06:28:33.534Z,99446.03
2022-09-15T06:30:35.341Z,99455.03
2022-09-15T06:32:37.212Z,99451.78
2022-09-15T06:34:38.895Z,99449.44
2022-09-15T06:36:40.595Z,99447.34
2022-09-15T06:38:42.987Z,99444.97
2022-09-15T06:40:44.679Z,99451.06
2022-09-15T06:42:46.507Z,99451.50
2022-09-15T06:44:48.390Z,99450.94
2022-09-15T06:46:50.294Z,99456.97
2022-09-15T06:48:52.721Z,99454.63
2022-09-15T06:50:54.971Z,99457.19
2022-09-15T06:52:56.644Z,99455.84
2022-09-15T06:54:58.423Z,99458.97
2022-09-15T06:57:00.233Z,99458.91
2022-09-15T06:59:01.963Z,99451.75
2022-09-15T07:01:08.878Z,99441.91
2022-09-15T07:03:11.009Z,99454.06
2022-09-15T07:05:12.852Z,99453.50
2022-09-15T07:07:14.815Z,99457.91
2022-09-15T07:09:16.712Z,99456.81
2022-09-15T07:11:18.670Z,99458.97
2022-09-15T07:13:20.854Z,99459.41
2022-09-15T07:15:22.587Z,99453.56
2022-09-15T07:17:24.482Z,99452.41
2022-09-15T07:19:26.167Z,99449.50
2022-09-15T07:21:28.639Z,99454.03
2022-09-15T07:23:30.756Z,99458.97
2022-09-15T07:25:32.535Z,99454.97
2022-09-15T07:27:34.470Z,99456.03
2022-09-15T07:29:37.893Z,99456.97
2022-09-15T07:31:39.624Z,99447.28
2022-09-15T07:33:41.567Z,99445.94
2022-09-15T07:35:43.960Z,99450.59
2022-09-15T07:37:45.888Z,99449.84
2022-09-15T07:39:47.843Z,99446.13
2022-09-15T07:41:49.577Z,99441.94
2022-09-15T07:43:56.752Z,99445.75
2022-09-15T07:46:02.354Z,99452.63
2022-09-15T07:48:04.141Z,99455.78
2022-09-15T07:50:07.247Z,99454.91
2022-09-15T07:52:09.418Z,99460.91
2022-09-15T07:54:11.142Z,99467.50
2022-09-15T07:56:13.268Z,99458.34
2022-09-15T07:58:15.417Z,99462.34
2022-09-15T08:00:17.245Z,99473.91
2022-09-15T08:02:21.205Z,99458.59
2022-09-15T08:04:23.450Z,99466.66
2022-09-15T08:06:26.688Z,99465.31
2022-09-15T08:08:29.739Z,99463.38
2022-09-15T08:10:32.245Z,99460.25
2022-09-15T08:12:33.927Z,99455.09
2022-09-15T08:14:35.837Z,99453.69
2022-09-15T08:16:38.731Z,99453.03
2022-09-15T08:18:42.731Z,99456.56
2022-09-15T08:20:44.930Z,99454.84
2022-09-15T08:22:46.917Z,99460.81
2022-09-15T08:24:48.635Z,99464.78
2022-09-15T08:26:50.992Z,99466.91
2022-09-15T08:28:53.335Z,99462.50
2022-09-15T08:31:06.974Z,99465.38
2022-09-15T08:33:08.774Z,99473.59
2022-09-15T08:35:10.608Z,99464.72
2022-09-15T08:37:12.299Z,99474.81
2022-09-15T08:39:14.023Z,99479.75
2022-09-15T08:41:27.704Z,99476.25
2022-09-15T08:43:36.345Z,99472.06
2022-09-15T08:45:49.800Z,99469.88
2022-09-15T08:47:56.837Z,99473.34
2022-09-15T08:50:34.040Z,99464.13
2022-09-15T08:52:58.261Z,99467.31
2022-09-15T08:55:19.926Z,99448.50
2022-09-15T08:57:24.686Z,99449.03
2022-09-15T08:59:35.795Z,99460.38
2022-09-15T09:01:58.469Z,99461.50
2022-09-15T09:04:18.717Z,99448.94
2022-09-15T09:06:41.990Z,99448.19
2022-09-15T09:08:50.742Z,99460.50
2022-09-15T09:10:57.000Z,99454.97
2022-09-15T09:13:20.449Z,99462.88
2022-09-15T09:15:43.942Z,99462.09
2022-09-15T09:17:51.513Z,99455.78
2022-09-15T09:20:17.883Z,99459.19
2022-09-15T09:22:25.932Z,99453.00
2022-09-15T09:24:46.710Z,99446.34
2022-09-15T09:26:51.802Z,99451.84
2022-09-15T09:29:00.229Z,99454.63
2022-09-15T09:31:05.504Z,99453.09
2022-09-15T09:33:20.976Z,99456.06
2022-09-15T09:35:40.049Z,99455.91
2022-09-15T09:37:41.823Z,99467.38
2022-09-15T09:39:43.600Z,99476.28
2022-09-15T09:41:45.358Z,99476.38
2022-09-15T09:43:49.128Z,99475.97
2022-09-15T09:45:50.919Z,99469.41
2022-09-15T09:47:56.337Z,99459.06
2022-09-15T09:50:00.107Z,99458.53
2022-09-15T09:52:03.364Z,99455.72
2022-09-15T09:54:13.643Z,99460.88
2022-09-15T09:56:24.515Z,99458.09
2022-09-15T09:58:26.342Z,99454.28
2022-09-15T10:00:37.033Z,99455.69
2022-09-15T10:02:47.612Z,99448.03
2022-09-15T10:04:55.009Z,99455.31
2022-09-15T10:06:57.078Z,99449.97
2022-09-15T10:09:02.329Z,99462.69
2022-09-15T10:11:07.324Z,99468.53
2022-09-15T10:13:11.479Z,99458.75
2022-09-15T10:15:28.766Z,99466.13
2022-09-15T10:17:36.338Z,99473.56
2022-09-15T10:19:48.522Z,99462.50
2022-09-15T10:21:50.726Z,99444.94
2022-09-15T10:23:52.625Z,99441.53
2022-09-15T10:26:18.369Z,99456.97
2022-09-15T10:28:25.319Z,99464.06
2022-09-15T10:30:27.802Z,99449.13
2022-09-15T10:32:30.939Z,99458.59
2022-09-15T10:34:32.697Z,99460.13
2022-09-15T10:36:34.617Z,99453.34
2022-09-15T10:38:46.267Z,99449.09
2022-09-15T10:41:04.282Z,99457.78
2022-09-15T10:43:18.194Z,99456.72
2022-09-15T10:45:19.707Z,99459.31
2022-09-15T10:47:29.806Z,99460.72
2022-09-15T10:49:51.875Z,99469.75
2022-09-15T10:52:05.566Z,99463.13
2022-09-15T10:54:34.372Z,99462.53
2022-09-15T10:56:55.385Z,99460.81
2022-09-15T10:59:07.616Z,99454.16
2022-09-15T11:01:30.837Z,99455.91
2022-09-15T11:03:40.932Z,99458.84
2022-09-15T11:06:09.630Z,99449.94
2022-09-15T11:08:29.799Z,99451.13
2022-09-15T11:11:06.654Z,99441.28
2022-09-15T11:13:23.463Z,99440.88
2022-09-15T11:15:34.042Z,99443.28
2022-09-15T11:18:05.290Z,99440.97
2022-09-15T11:20:28.093Z,99440.84
2022-09-15T11:22:50.015Z,99435.59
2022-09-15T11:24:53.499Z,99440.72
2022-09-15T11:27:03.562Z,99430.78
2022-09-15T11:29:20.231Z,99438.03
2022-09-15T11:31:45.035Z,99435.13
2022-09-15T11:33:58.835Z,99426.47
2022-09-15T11:36:33.517Z,99438.88
2022-09-15T11:38:37.945Z,99430.53
2022-09-15T11:40:47.192Z,99439.88
2022-09-15T11:42:48.835Z,99432.53
2022-09-15T11:44:50.632Z,99430.09
2022-09-15T11:47:07.227Z,99429.97
2022-09-15T11:49:19.043Z,99433.34
2022-09-15T11:51:24.445Z,99438.63
2022-09-15T11:53:50.575Z,99442.59
2022-09-15T11:56:00.521Z,99439.22
2022-09-15T11:58:38.758Z,99442.00
2022-09-15T12:01:00.595Z,99439.09
2022-09-15T12:03:20.282Z,99431.47
2022-09-15T12:05:29.288Z,99436.97
2022-09-15T12:07:36.176Z,99441.09
2022-09-15T12:09:38.871Z,99440.44
2022-09-15T12:11:49.286Z,99442.53
2022-09-15T12:13:51.748Z,99441.59
2022-09-15T12:15:54.665Z,99437.38
2022-09-15T12:18:27.243Z,99449.38
2022-09-15T12:20:39.831Z,99441.78
2022-09-15T12:22:49.286Z,99427.84
2022-09-15T12:25:03.125Z,99435.31
2022-09-15T12:27:04.892Z,99428.19
2022-09-15T12:29:21.989Z,99431.16
2022-09-15T12:31:30.981Z,99433.41
2022-09-15T12:33:46.566Z,99428.09
2022-09-15T12:35:48.294Z,99432.75
2022-09-15T12:37:54.137Z,99425.63
2022-09-15T12:39:56.006Z,99428.66
2022-09-15T12:42:17.932Z,99416.75
2022-09-15T12:44:42.593Z,99430.41
2022-09-15T12:46:55.212Z,99408.75
2022-09-15T12:49:02.610Z,99415.91
2022-09-15T12:51:10.153Z,99418.72
2022-09-15T12:53:23.412Z,99422.59
2022-09-15T12:55:29.914Z,99419.22
2022-09-15T12:57:37.386Z,99404.41
2022-09-15T12:59:39.341Z,99416.03
2022-09-15T13:01:48.631Z,99402.00
2022-09-15T13:03:50.483Z,99416.13
2022-09-15T13:06:13.594Z,99409.94
2022-09-15T13:08:35.190Z,99407.09
2022-09-15T13:10:41.719Z,99404.06
2022-09-15T13:12:53.520Z,99398.84
2022-09-15T13:14:56.986Z,99393.94
2022-09-15T13:17:07.789Z,99398.88
2022-09-15T13:19:34.144Z,99401.72
2022-09-15T13:21:39.729Z,99402.16
2022-09-15T13:23:46.618Z,99408.47
2022-09-15T13:25:49.955Z,99400.78
2022-09-15T13:27:57.420Z,99395.63
2022-09-15T13:30:31.685Z,99398.16
2022-09-15T13:32:59.203Z,99399.69
2022-09-15T13:35:20.945Z,99413.38
2022-09-15T13:40:20.560Z,99404.50
2022-09-15T13:42:22.372Z,99398.31
2022-09-15T13:45:06.686Z,99397.03
2022-09-15T13:47:33.161Z,99391.88
2022-09-15T13:49:59.079Z,99396.19
2022-09-15T13:52:07.624Z,99390.66
2022-09-15T13:54:19.491Z,99384.22
2022-09-15T13:56:31.603Z,99390.66
2022-09-15T14:01:04.920Z,99382.19
2022-09-15T14:03:11.686Z,99385.13
2022-09-15T14:05:14.439Z,99380.19
2022-09-15T14:07:23.286Z,99382.97
2022-09-15T14:09:29.749Z,99387.25
2022-09-15T14:11:33.775Z,99369.38
2022-09-15T14:13:37.425Z,99389.53
2022-09-15T14:15:38.990Z,99384.41
2022-09-15T14:17:45.682Z,99384.84
2022-09-15T14:19:52.824Z,99382.13
2022-09-15T14:21:58.249Z,99388.53
2022-09-15T14:24:06.133Z,99374.34
2022-09-15T14:26:13.594Z,99374.06
2022-09-15T14:28:22.084Z,99369.31
2022-09-15T14:30:30.944Z,99376.38
2022-09-15T14:32:43.477Z,99381.91
2022-09-15T14:34:45.662Z,99388.47
2022-09-15T14:36:57.281Z,99383.13
2022-09-15T14:39:18.602Z,99384.25
2022-09-15T14:41:20.326Z,99378.91
2022-09-15T14:43:32.687Z,99382.28
2022-09-15T14:48:09.059Z,99387.63
2022-09-15T14:50:16.565Z,99384.13
2022-09-15T14:52:34.192Z,99382.09
2022-09-15T14:54:37.769Z,99386.22
2022-09-15T14:56:41.697Z,99383.91
2022-09-15T14:58:59.855Z,99380.50
2022-09-15T15:01:09.608Z,99382.72
2022-09-15T15:03:17.561Z,99381.09
2022-09-15T15:05:26.270Z,99388.53
2022-09-15T15:07:31.095Z,99394.03
2022-09-15T15:09:37.376Z,99390.84
2022-09-15T15:11:41.413Z,99388.28
2022-09-15T15:13:45.828Z,99385.38
2022-09-15T15:15:48.389Z,99379.16
2022-09-15T15:17:52.598Z,99370.94
2022-09-15T15:20:27.555Z,99374.00
2022-09-15T15:22:29.812Z,99366.31
2022-09-15T15:24:32.023Z,99365.03
2022-09-15T15:26:40.787Z,99375.94
2022-09-15T15:28:42.778Z,99371.53
2022-09-15T15:30:46.577Z,99356.97
2022-09-15T15:32:48.892Z,99375.47
2022-09-15T15:35:00.095Z,99336.41
2022-09-15T15:37:03.496Z,99369.59
2022-09-15T15:39:07.820Z,99372.75
2022-09-15T15:41:20.674Z,99366.31
2022-09-15T15:43:25.101Z,99369.28
2022-09-15T15:45:29.571Z,99371.13
2022-09-15T15:47:35.397Z,99375.28
2022-09-15T15:49:46.176Z,99372.28
2022-09-15T15:51:56.595Z,99369.78
2022-09-15T15:53:58.447Z,99367.41
2022-09-15T15:56:00.223Z,99369.59
2022-09-15T15:58:01.955Z,99355.13
2022-09-15T16:00:11.112Z,99361.66
2022-09-15T16:02:15.799Z,99370.66
2022-09-15T16:04:24.399Z,99365.97
2022-09-15T16:06:28.036Z,99360.81
2022-09-15T16:08:33.378Z,99360.47
2022-09-15T16:10:43.135Z,99362.63
2022-09-15T16:12:45.056Z,99361.50
2022-09-15T16:14:47.188Z,99355.78
2022-09-15T16:16:54.103Z,99360.53
2022-09-15T16:18:59.759Z,99360.00
2022-09-15T16:21:04.633Z,99359.53
2022-09-15T16:23:07.545Z,99362.75
2022-09-15T16:25:23.614Z,99362.97
2022-09-15T16:27:25.376Z,99364.88
2022-09-15T16:29:27.083Z,99365.72
2022-09-15T16:31:30.114Z,99363.09
2022-09-15T16:33:39.942Z,99363.22
2022-09-15T16:35:56.862Z,99360.06
2022-09-15T16:38:08.010Z,99359.88
2022-09-15T16:40:14.236Z,99361.59
2022-09-15T16:42:17.809Z,99367.97
2022-09-15T16:44:23.501Z,99364.09
2022-09-15T16:46:25.545Z,99373.59
2022-09-15T16:48:29.284Z,99369.88
2022-09-15T16:50:50.098Z,99362.84
2022-09-15T16:52:59.279Z,99371.31
2022-09-15T16:55:01.011Z,99370.28
2022-09-15T16:57:02.939Z,99363.13
2022-09-15T16:59:04.639Z,99377.16
2022-09-15T17:01:07.108Z,99384.00
2022-09-15T17:03:12.550Z,99379.50
2022-09-15T17:05:48.672Z,99388.75
2022-09-15T17:10:09.565Z,99382.88
2022-09-15T17:14:18.335Z,99387.56
2022-09-15T17:16:20.393Z,99383.66
2022-09-15T17:18:23.235Z,99391.06
2022-09-15T17:20:25.402Z,99377.78
2022-09-15T17:22:27.224Z,99400.16
2022-09-15T17:24:28.934Z,99389.06
2022-09-15T17:26:31.613Z,99398.91
2022-09-15T17:28:35.217Z,99394.44
2022-09-15T17:30:38.181Z,99404.91
2022-09-15T17:32:40.215Z,99405.97
2022-09-15T17:34:46.053Z,99404.72
2022-09-15T17:36:47.720Z,99400.22
2022-09-15T17:38:51.945Z,99408.22
2022-09-15T17:40:57.162Z,99404.56
2022-09-15T17:43:17.223Z,99405.56
2022-09-15T17:45:49.593Z,99417.50
2022-09-15T17:47:52.836Z,99422.47
2022-09-15T17:49:54.849Z,99421.25
2022-09-15T17:51:59.879Z,99425.97
2022-09-15T17:54:01.705Z,99421.44
2022-09-15T17:56:03.425Z,99422.47
2022-09-15T17:58:08.327Z,99422.91
2022-09-15T18:00:16.238Z,99415.72
2022-09-15T18:02:20.462Z,99427.84
2022-09-15T18:04:22.751Z,99419.84
2022-09-15T18:06:24.473Z,99425.38
2022-09-15T18:08:28.531Z,99413.03
2022-09-15T18:10:35.173Z,99423.31
2022-09-15T18:12:37.039Z,99426.41
2022-09-15T18:14:38.853Z,99415.13
2022-09-15T18:16:40.584Z,99430.31
2022-09-15T18:18:42.987Z,99421.03
2022-09-15T18:20:44.933Z,99431.53
2022-09-15T18:22:47.950Z,99435.41
2022-09-15T18:24:49.833Z,99432.34
2022-09-15T18:26:51.651Z,99419.22
2022-09-15T18:28:53.668Z,99434.00
2022-09-15T18:30:55.857Z,99438.50
2022-09-15T18:32:58.756Z,99434.19
2022-09-15T18:35:00.752Z,99437.69
2022-09-15T18:37:03.388Z,99432.16
2022-09-15T18:39:08.827Z,99421.03
2022-09-15T18:41:15.352Z,99440.94
2022-09-15T18:43:17.648Z,99437.69
2022-09-15T18:45:20.190Z,99436.03
2022-09-15T18:47:22.011Z,99439.53
2022-09-15T18:49:23.791Z,99434.19
2022-09-15T18:51:50.490Z,99436.88
2022-09-15T18:53:54.542Z,99448.75
2022-09-15T18:55:59.373Z,99449.94
2022-09-15T18:58:01.883Z,99450.75
2022-09-15T19:00:12.430Z,99450.53
2022-09-15T19:02:14.411Z,99457.28
2022-09-15T19:04:16.270Z,99453.72
2022-09-15T19:06:27.433Z,99451.50
2022-09-15T19:08:30.442Z,99462.22
2022-09-15T19:10:32.198Z,99464.53
2022-09-15T19:12:36.749Z,99468.88
2022-09-15T19:14:41.293Z,99470.31
2022-09-15T19:16:57.636Z,99468.84
2022-09-15T19:19:00.850Z,99470.69
2022-09-15T19:21:10.536Z,99465.53
2022-09-15T19:23:12.994Z,99466.38
2022-09-15T19:25:16.822Z,99470.22
2022-09-15T19:27:19.055Z,99473.88
2022-09-15T19:29:20.768Z,99467.16
2022-09-15T19:31:23.930Z,99475.16
2022-09-15T19:33:26.919Z,99475.72
2022-09-15T19:35:29.286Z,99470.22
2022-09-15T19:37:31.053Z,99471.19
2022-09-15T19:39:32.933Z,99478.19
2022-09-15T19:41:34.649Z,99484.94
2022-09-15T19:43:36.613Z,99471.78
2022-09-15T19:45:41.683Z,99469.94
2022-09-15T19:47:43.434Z,99474.41
2022-09-15T19:49:45.250Z,99482.41
2022-09-15T19:51:47.075Z,99486.50
2022-09-15T19:53:48.823Z,99484.50
2022-09-15T19:55:51.470Z,99486.75
2022-09-15T19:57:53.229Z,99483.84
2022-09-15T19:59:54.912Z,99484.06
2022-09-15T20:02:01.546Z,99488.34
2022-09-15T20:08:42.487Z,99478.50
2022-09-15T20:10:45.633Z,99476.06
2022-09-15T20:12:47.400Z,99472.06
2022-09-15T20:14:49.087Z,99470.34
2022-09-15T20:16:50.771Z,99476.00
2022-09-15T20:18:54.036Z,99483.72
2022-09-15T20:20:56.620Z,99487.53
2022-09-15T20:23:07.380Z,99474.16
2022-09-15T20:25:10.212Z,99488.59
2022-09-15T20:27:12.127Z,99490.44
2022-09-15T20:29:17.753Z,99492.22
2022-09-15T20:33:51.119Z,99484.81
2022-09-15T20:36:03.489Z,99489.69
2022-09-15T20:38:05.279Z,99481.69
2022-09-15T20:40:08.354Z,99487.00
2022-09-15T20:42:10.068Z,99488.66
2022-09-15T20:44:12.311Z,99476.94
2022-09-15T20:46:16.995Z,99487.44
2022-09-15T20:48:18.715Z,99484.06
2022-09-15T20:50:20.419Z,99482.69
2022-09-15T20:52:23.613Z,99482.88
2022-09-15T20:54:27.539Z,99486.22
2022-09-15T20:56:31.285Z,99485.75
2022-09-15T20:58:34.241Z,99493.66
2022-09-15T21:00:35.927Z,99492.09
2022-09-15T21:02:39.226Z,99491.13
2022-09-15T21:04:41.260Z,99487.13
2022-09-15T21:06:47.202Z,99490.44
2022-09-15T21:08:49.928Z,99495.75
2022-09-15T21:10:51.833Z,99490.34
2022-09-15T21:12:53.583Z,99492.75
2022-09-15T21:14:55.350Z,99488.63
2022-09-15T21:16:57.168Z,99487.16
2022-09-15T21:18:59.161Z,99488.34
2022-09-15T21:21:07.340Z,99475.88
2022-09-15T21:23:11.585Z,99482.41
2022-09-15T21:25:13.683Z,99481.66
2022-09-15T21:27:15.652Z,99480.03
2022-09-15T21:29:17.813Z,99477.09
2022-09-15T21:31:37.002Z,99483.13
2022-09-15T21:33:39.853Z,99479.81
2022-09-15T21:35:41.999Z,99485.34
2022-09-15T21:37:44.400Z,99334.91
2022-09-15T21:39:46.616Z,99299.09
2022-09-15T21:41:49.340Z,99293.03
2022-09-15T21:44:00.303Z,99477.81
2022-09-15T21:46:06.852Z,99413.41
2022-09-15T21:48:09.356Z,99475.97
2022-09-15T21:50:14.306Z,99278.88
2022-09-15T21:52:19.753Z,99366.56
2022-09-15T21:54:23.299Z,99363.91
2022-09-15T21:56:27.790Z,99280.75
2022-09-15T21:58:41.716Z,99360.16
2022-09-15T22:00:49.802Z,99411.56
2022-09-15T22:03:18.421Z,99273.13
2022-09-15T22:05:26.431Z,99336.28
2022-09-15T22:07:48.826Z,99501.78
2022-09-15T22:09:50.513Z,99495.59
2022-09-15T22:11:52.229Z,99496.63
2022-09-15T22:14:05.948Z,99489.41
2022-09-15T22:16:16.151Z,99486.50
2022-09-15T22:18:18.364Z,99476.56
2022-09-15T22:20:20.340Z,99478.31
2022-09-15T22:22:22.198Z,99478.31
2022-09-15T22:24:25.125Z,99490.59
2022-09-15T22:26:30.666Z,99489.25
2022-09-15T22:28:38.577Z,99493.25
2022-09-15T22:30:40.522Z,99493.91
2022-09-15T22:32:42.358Z,99495.47
2022-09-15T22:34:46.151Z,99494.75
2022-09-15T22:36:51.573Z,99497.13
2022-09-15T22:38:56.420Z,99496.22
2022-09-15T22:41:07.131Z,99498.97
2022-09-15T22:43:09.356Z,99501.06
2022-09-15T22:45:13.522Z,99503.16
2022-09-15T22:49:18.380Z,99505.38
2022-09-15T22:51:20.413Z,99311.09
2022-09-15T22:53:22.271Z,99392.88
2022-09-15T22:55:24.409Z,99304.97
2022-09-15T22:57:36.685Z,99328.59
2022-09-15T22:59:47.892Z,99338.81
2022-09-15T23:01:50.070Z,99459.47
2022-09-15T23:03:53.823Z,99330.75
2022-09-15T23:06:00.606Z,99509.53
2022-09-15T23:08:07.332Z,99407.81
2022-09-15T23:10:09.495Z,99298.38
2022-09-15T23:12:14.607Z,99498.63
2022-09-15T23:14:29.894Z,99483.56
2022-09-15T23:16:36.972Z,99292.38
2022-09-15T23:18:44.774Z,99325.75
2022-09-15T23:20:47.025Z,99343.75
2022-09-15T23:22:48.894Z,99511.22
2022-09-15T23:24:50.622Z,99512.50
2022-09-15T23:26:52.354Z,99511.00
2022-09-15T23:28:54.304Z,99506.16
2022-09-15T23:30:57.599Z,99505.75
2022-09-15T23:32:59.275Z,99506.47
2022-09-15T23:35:02.041Z,99504.09
2022-09-15T23:37:05.161Z,99500.31
2022-09-15T23:39:09.045Z,99518.94
2022-09-15T23:41:17.036Z,99506.16
2022-09-15T23:43:19.078Z,99510.25
2022-09-15T23:45:20.769Z,99519.44
2022-09-15T23:47:35.546Z,99520.16
2022-09-15T23:49:37.535Z,99509.66
2022-09-15T23:51:43.826Z,99521.59
2022-09-15T23:53:48.438Z,99525.19
2022-09-15T23:55:50.725Z,99521.13
2022-09-15T23:57:53.881Z,99524.38
